createdAt,value
2023-05-10T00:00:11.323Z,1.23
2023-05-10T00:02:44.175Z,2.50
2023-05-10T00:05:12.362Z,2.23
2023-05-10T00:07:40.445Z,2.30
2023-05-10T00:10:09.313Z,2.70
2023-05-10T00:12:39.992Z,2.00
2023-05-10T00:15:11.332Z,2.67
2023-05-10T00:17:43.281Z,2.60
2023-05-10T00:20:14.454Z,2.00
2023-05-10T00:22:42.760Z,2.67
2023-05-10T00:25:13.200Z,2.60
2023-05-10T00:27:41.364Z,2.20
2023-05-10T00:30:10.504Z,1.70
2023-05-10T00:32:41.006Z,2.40
2023-05-10T00:35:13.043Z,1.90
2023-05-10T00:37:43.887Z,2.73
2023-05-10T00:40:12.960Z,3.23
2023-05-10T00:42:42.179Z,2.63
2023-05-10T00:45:12.919Z,3.00
2023-05-10T00:47:42.128Z,2.20
2023-05-10T00:50:12.527Z,2.50
2023-05-10T00:52:40.966Z,2.07
2023-05-10T00:55:11.236Z,2.20
2023-05-10T00:57:41.808Z,2.10
2023-05-10T01:00:11.266Z,2.10
2023-05-10T01:02:39.481Z,2.30
2023-05-10T01:05:10.111Z,1.70
2023-05-10T01:07:39.597Z,2.00
2023-05-10T01:10:08.988Z,1.63
2023-05-10T01:12:42.380Z,1.70
2023-05-10T01:15:12.681Z,1.43
2023-05-10T01:17:44.587Z,1.90
2023-05-10T01:20:13.955Z,1.70
2023-05-10T01:23:23.238Z,2.20
2023-05-10T01:26:13.964Z,2.27
2023-05-10T01:29:05.717Z,2.53
2023-05-10T01:32:03.169Z,2.10
2023-05-10T01:34:37.757Z,2.17
2023-05-10T01:37:12.943Z,2.10
2023-05-10T01:39:47.748Z,1.70
2023-05-10T01:42:19.618Z,2.20
2023-05-10T01:44:56.614Z,1.97
2023-05-10T01:47:33.011Z,1.77
2023-05-10T01:50:07.084Z,1.80
2023-05-10T01:52:40.647Z,2.03
2023-05-10T01:55:15.405Z,1.70
2023-05-10T01:57:46.150Z,1.63
2023-05-10T02:00:17.329Z,1.70
2023-05-10T02:02:48.660Z,2.00
2023-05-10T02:05:19.440Z,1.70
2023-05-10T02:07:48.268Z,1.53
2023-05-10T02:10:17.907Z,1.90
2023-05-10T02:12:50.525Z,1.90
2023-05-10T02:15:28.633Z,2.00
2023-05-10T02:17:58.742Z,2.10
2023-05-10T02:20:33.393Z,1.90
2023-05-10T02:23:02.992Z,1.93
2023-05-10T02:25:33.677Z,2.10
2023-05-10T02:28:06.657Z,2.50
2023-05-10T02:30:36.832Z,2.60
2023-05-10T02:33:07.042Z,2.40
2023-05-10T02:35:37.293Z,3.00
2023-05-10T02:38:06.463Z,3.73
2023-05-10T02:40:35.332Z,3.53
2023-05-10T02:43:04.660Z,3.30
2023-05-10T02:45:39.875Z,3.40
2023-05-10T02:48:11.615Z,3.00
2023-05-10T02:50:45.885Z,3.50
2023-05-10T02:53:20.518Z,3.83
2023-05-10T02:55:52.781Z,3.40
2023-05-10T02:58:21.844Z,3.77
2023-05-10T03:00:52.325Z,3.53
2023-05-10T03:03:22.037Z,3.90
2023-05-10T03:05:54.770Z,3.97
2023-05-10T03:08:23.066Z,3.13
2023-05-10T03:11:03.827Z,3.90
2023-05-10T03:13:38.520Z,3.50
2023-05-10T03:16:14.311Z,3.60
2023-05-10T03:18:46.723Z,3.40
2023-05-10T03:21:20.578Z,3.57
2023-05-10T03:23:59.760Z,3.13
2023-05-10T03:26:31.074Z,3.03
2023-05-10T03:29:12.033Z,3.00
2023-05-10T03:31:40.731Z,3.03
2023-05-10T03:34:11.470Z,3.20
2023-05-10T03:36:43.066Z,2.97
2023-05-10T03:39:11.479Z,2.70
2023-05-10T03:41:39.717Z,2.30
2023-05-10T03:44:07.966Z,2.50
2023-05-10T03:46:38.348Z,2.80
2023-05-10T03:49:06.513Z,2.30
2023-05-10T03:51:34.671Z,2.40
2023-05-10T03:54:07.229Z,2.50
2023-05-10T03:56:35.390Z,3.17
2023-05-10T03:59:08.289Z,3.07
2023-05-10T04:01:38.811Z,4.10
2023-05-10T04:04:11.055Z,3.70
2023-05-10T04:06:40.493Z,4.23
2023-05-10T04:09:10.149Z,4.40
2023-05-10T04:11:38.260Z,3.77
2023-05-10T04:14:06.399Z,4.13
2023-05-10T04:16:34.592Z,4.60
2023-05-10T04:19:03.665Z,4.63
2023-05-10T04:21:31.846Z,5.03
2023-05-10T04:24:01.167Z,4.30
2023-05-10T04:26:32.950Z,4.90
2023-05-10T04:29:01.259Z,4.80
2023-05-10T04:31:29.403Z,4.80
2023-05-10T04:33:59.909Z,4.30
2023-05-10T04:36:30.272Z,5.30
2023-05-10T04:38:58.386Z,4.60
2023-05-10T04:41:26.910Z,4.50
2023-05-10T04:43:56.542Z,5.33
2023-05-10T04:46:24.826Z,5.17
2023-05-10T04:48:53.004Z,5.17
2023-05-10T04:51:21.479Z,5.50
2023-05-10T04:54:01.656Z,6.33
2023-05-10T04:56:35.822Z,5.37
2023-05-10T04:59:05.332Z,6.27
2023-05-10T05:01:33.551Z,6.20
2023-05-10T05:04:02.429Z,7.30
2023-05-10T05:06:32.911Z,7.30
2023-05-10T05:09:03.671Z,6.47
2023-05-10T05:11:34.143Z,6.13
2023-05-10T05:14:02.326Z,6.70
2023-05-10T05:16:33.066Z,7.57
2023-05-10T05:19:02.608Z,6.30
2023-05-10T05:21:33.681Z,6.53
2023-05-10T05:24:01.968Z,6.07
2023-05-10T05:26:30.112Z,5.83
2023-05-10T05:28:58.257Z,7.67
2023-05-10T05:31:26.459Z,7.43
2023-05-10T05:33:59.117Z,7.87
2023-05-10T05:36:27.206Z,7.20
2023-05-10T05:38:56.054Z,6.93
2023-05-10T05:41:26.991Z,8.27
2023-05-10T05:43:57.644Z,6.57
2023-05-10T05:46:25.830Z,7.07
2023-05-10T05:48:54.008Z,8.57
2023-05-10T05:51:23.497Z,9.50
2023-05-10T05:53:51.702Z,8.53
2023-05-10T05:56:25.403Z,8.23
2023-05-10T05:58:53.909Z,8.13
2023-05-10T06:01:22.478Z,8.10
2023-05-10T06:03:53.411Z,8.73
2023-05-10T06:06:25.630Z,8.27
2023-05-10T06:08:53.771Z,8.20
2023-05-10T06:11:22.086Z,8.33
2023-05-10T06:13:50.273Z,10.53
2023-05-10T06:16:18.805Z,12.43
2023-05-10T06:18:49.177Z,12.67
2023-05-10T06:21:19.660Z,11.20
2023-05-10T06:23:49.149Z,12.13
2023-05-10T06:26:17.319Z,13.77
2023-05-10T06:28:45.422Z,15.97
2023-05-10T06:31:16.187Z,16.17
2023-05-10T06:33:44.381Z,15.73
2023-05-10T06:36:12.517Z,15.97
2023-05-10T06:38:40.627Z,15.20
2023-05-10T06:41:10.206Z,16.33
2023-05-10T06:43:40.901Z,18.43
2023-05-10T06:46:09.272Z,18.07
2023-05-10T06:48:37.363Z,19.17
2023-05-10T06:51:08.250Z,20.70
2023-05-10T06:53:36.441Z,19.97
2023-05-10T06:56:04.903Z,20.63
2023-05-10T06:58:36.944Z,22.17
2023-05-10T07:01:06.121Z,21.47
2023-05-10T07:03:34.613Z,22.67
2023-05-10T07:06:04.794Z,23.07
2023-05-10T07:08:35.677Z,22.90
2023-05-10T07:11:05.080Z,25.20
2023-05-10T07:13:33.809Z,26.00
2023-05-10T07:16:04.032Z,22.73
2023-05-10T07:18:32.304Z,20.77
2023-05-10T07:21:00.576Z,23.77
2023-05-10T07:23:28.666Z,24.27
2023-05-10T07:25:58.332Z,24.30
2023-05-10T07:28:26.712Z,23.10
2023-05-10T07:30:54.868Z,25.00
2023-05-10T07:33:26.640Z,25.03
2023-05-10T07:35:54.775Z,23.57
2023-05-10T07:38:25.428Z,23.43
2023-05-10T07:40:53.652Z,22.77
2023-05-10T07:43:21.885Z,23.60
2023-05-10T07:45:50.111Z,22.67
2023-05-10T07:48:21.324Z,22.33
2023-05-10T07:50:50.847Z,23.33
2023-05-10T07:53:21.730Z,23.73
2023-05-10T07:55:52.710Z,22.63
2023-05-10T07:58:20.862Z,23.23
2023-05-10T08:00:50.178Z,22.47
2023-05-10T08:03:18.532Z,22.30
2023-05-10T08:05:46.813Z,23.80
2023-05-10T08:08:18.996Z,23.50
2023-05-10T08:10:49.510Z,24.13
2023-05-10T08:13:17.629Z,22.73
2023-05-10T08:15:45.757Z,23.07
2023-05-10T08:18:16.936Z,22.60
2023-05-10T08:20:45.145Z,22.37
2023-05-10T08:23:14.756Z,21.70
2023-05-10T08:25:44.285Z,21.63
2023-05-10T08:28:12.408Z,21.67
2023-05-10T08:30:42.830Z,21.77
2023-05-10T08:33:11.148Z,21.63
2023-05-10T08:35:39.393Z,21.13
2023-05-10T08:38:07.521Z,19.93
2023-05-10T08:40:37.094Z,19.13
2023-05-10T08:43:08.039Z,19.83
2023-05-10T08:45:39.598Z,20.10
2023-05-10T08:48:11.339Z,20.33
2023-05-10T08:50:41.455Z,19.30
2023-05-10T08:53:12.885Z,19.70
2023-05-10T08:55:43.867Z,19.10
2023-05-10T08:58:16.377Z,21.07
2023-05-10T09:00:45.048Z,20.50
2023-05-10T09:03:16.640Z,19.03
2023-05-10T09:05:47.310Z,19.20
2023-05-10T09:08:19.192Z,21.00
2023-05-10T09:10:48.393Z,20.60
2023-05-10T09:13:19.099Z,20.23
2023-05-10T09:15:48.010Z,20.07
2023-05-10T09:18:16.495Z,19.83
2023-05-10T09:20:44.805Z,19.83
2023-05-10T09:23:12.923Z,19.07
2023-05-10T09:25:43.112Z,18.83
2023-05-10T09:28:11.872Z,20.23
2023-05-10T09:30:44.018Z,19.90
2023-05-10T09:33:12.159Z,18.20
2023-05-10T09:35:43.461Z,19.00
2023-05-10T09:38:11.757Z,19.37
2023-05-10T09:40:40.064Z,19.03
2023-05-10T09:43:11.851Z,19.90
2023-05-10T09:45:40.020Z,18.97
2023-05-10T09:48:11.958Z,20.00
2023-05-10T09:50:40.149Z,17.53
2023-05-10T09:53:09.894Z,17.77
2023-05-10T09:55:42.300Z,17.73
2023-05-10T09:58:13.310Z,16.27
2023-05-10T10:00:45.035Z,16.73
2023-05-10T10:03:18.526Z,17.20
2023-05-10T10:05:50.131Z,15.13
2023-05-10T10:08:18.689Z,15.53
2023-05-10T10:10:52.160Z,15.67
2023-05-10T10:13:22.821Z,15.63
2023-05-10T10:15:56.379Z,15.87
2023-05-10T10:18:28.114Z,16.13
2023-05-10T10:20:59.113Z,15.70
2023-05-10T10:23:27.941Z,15.77
2023-05-10T10:25:57.605Z,16.03
2023-05-10T10:28:34.485Z,15.43
2023-05-10T10:31:19.583Z,16.23
2023-05-10T10:34:01.402Z,16.00
2023-05-10T10:36:32.273Z,14.90
2023-05-10T10:39:01.714Z,14.80
2023-05-10T10:41:34.722Z,13.83
2023-05-10T10:44:37.604Z,14.83
2023-05-10T10:47:30.700Z,14.33
2023-05-10T10:50:08.180Z,13.47
2023-05-10T10:52:39.236Z,12.83
2023-05-10T10:55:11.157Z,12.27
2023-05-10T10:57:51.034Z,11.77
2023-05-10T11:00:27.593Z,11.73
2023-05-10T11:03:05.329Z,12.00
2023-05-10T11:05:41.291Z,12.47
2023-05-10T11:08:12.568Z,12.20
2023-05-10T11:10:41.536Z,12.60
2023-05-10T11:13:12.785Z,11.20
2023-05-10T11:15:42.128Z,11.73
2023-05-10T11:18:21.427Z,11.30
2023-05-10T11:20:55.074Z,12.63
2023-05-10T11:23:23.710Z,12.90
2023-05-10T11:25:54.998Z,11.07
2023-05-10T11:28:25.551Z,12.10
2023-05-10T11:30:57.165Z,11.30
2023-05-10T11:33:25.395Z,11.90
2023-05-10T11:35:54.922Z,12.03
2023-05-10T11:38:25.370Z,12.20
2023-05-10T11:40:55.000Z,11.20
2023-05-10T11:43:29.173Z,13.03
2023-05-10T11:45:57.463Z,13.27
2023-05-10T11:48:29.116Z,12.13
2023-05-10T11:51:03.054Z,12.20
2023-05-10T11:53:34.769Z,13.87
2023-05-10T11:56:06.516Z,12.67
2023-05-10T11:58:35.379Z,12.50
2023-05-10T12:01:07.264Z,14.00
2023-05-10T12:03:36.243Z,13.30
2023-05-10T12:06:09.741Z,13.10
2023-05-10T12:08:38.302Z,11.83
2023-05-10T12:11:08.789Z,11.20
2023-05-10T12:13:41.314Z,12.10
2023-05-10T12:16:16.684Z,11.63
2023-05-10T12:18:47.735Z,12.40
2023-05-10T12:21:21.341Z,12.07
2023-05-10T12:23:50.516Z,11.83
2023-05-10T12:26:18.899Z,11.27
2023-05-10T12:28:49.609Z,10.80
2023-05-10T12:31:18.039Z,11.43
2023-05-10T12:33:48.294Z,11.57
2023-05-10T12:36:18.990Z,12.73
2023-05-10T12:38:52.068Z,11.60
2023-05-10T12:41:22.331Z,11.73
2023-05-10T12:43:50.524Z,12.53
2023-05-10T12:46:19.599Z,11.60
2023-05-10T12:48:57.557Z,11.40
2023-05-10T12:51:31.735Z,10.63
2023-05-10T12:54:04.371Z,10.50
2023-05-10T12:56:32.691Z,9.93
2023-05-10T12:59:00.970Z,11.37
2023-05-10T13:01:29.240Z,10.67
2023-05-10T13:03:57.679Z,11.73
2023-05-10T13:06:25.947Z,10.93
2023-05-10T13:08:56.461Z,11.87
2023-05-10T13:11:28.555Z,12.93
2023-05-10T13:13:56.952Z,10.20
2023-05-10T13:16:25.172Z,10.80
2023-05-10T13:18:53.571Z,11.27
2023-05-10T13:21:27.356Z,11.47
2023-05-10T13:23:57.009Z,10.37
2023-05-10T13:26:37.639Z,9.43
2023-05-10T13:29:13.810Z,10.37
2023-05-10T13:31:49.043Z,9.63
2023-05-10T13:34:21.974Z,9.70
2023-05-10T13:37:03.590Z,11.40
2023-05-10T13:39:35.868Z,11.00
2023-05-10T13:42:08.742Z,10.37
2023-05-10T13:44:37.101Z,9.70
2023-05-10T13:47:07.752Z,11.17
2023-05-10T13:49:35.961Z,10.37
2023-05-10T13:52:07.712Z,10.80
2023-05-10T13:54:39.285Z,12.33
2023-05-10T13:57:08.954Z,10.93
2023-05-10T13:59:39.431Z,12.50
2023-05-10T14:02:08.208Z,11.90
2023-05-10T14:04:38.743Z,12.53
2023-05-10T14:07:07.021Z,12.13
2023-05-10T14:09:35.214Z,11.00
2023-05-10T14:12:06.123Z,10.37
2023-05-10T14:14:35.666Z,9.90
2023-05-10T14:17:03.824Z,10.03
2023-05-10T14:19:33.582Z,10.97
2023-05-10T14:22:01.875Z,10.67
2023-05-10T14:24:32.690Z,10.10
2023-05-10T14:27:03.270Z,11.40
2023-05-10T14:29:35.089Z,10.83
2023-05-10T14:32:03.980Z,10.63
2023-05-10T14:34:32.177Z,11.00
2023-05-10T14:37:02.692Z,10.90
2023-05-10T14:39:34.161Z,10.47
2023-05-10T14:42:03.566Z,9.77
2023-05-10T14:44:31.722Z,9.73
2023-05-10T14:47:03.445Z,10.80
2023-05-10T14:49:33.590Z,9.40
2023-05-10T14:52:01.732Z,8.10
2023-05-10T14:54:34.373Z,9.90
2023-05-10T14:57:05.023Z,9.27
2023-05-10T14:59:33.241Z,11.27
2023-05-10T15:02:04.135Z,10.63
2023-05-10T15:04:35.153Z,10.80
2023-05-10T15:07:04.171Z,10.53
2023-05-10T15:09:32.376Z,10.53
2023-05-10T15:12:00.585Z,12.43
2023-05-10T15:14:28.853Z,10.80
2023-05-10T15:16:57.026Z,10.73
2023-05-10T15:19:29.745Z,11.10
2023-05-10T15:21:58.080Z,10.23
2023-05-10T15:24:26.293Z,10.60
2023-05-10T15:26:56.988Z,10.43
2023-05-10T15:29:25.180Z,9.10
2023-05-10T15:31:55.474Z,9.27
2023-05-10T15:34:23.701Z,8.90
2023-05-10T15:36:55.561Z,8.40
2023-05-10T15:39:26.057Z,8.67
2023-05-10T15:41:54.192Z,7.40
2023-05-10T15:44:23.286Z,7.90
2023-05-10T15:46:53.937Z,7.83
2023-05-10T15:49:22.052Z,7.10
2023-05-10T15:51:52.474Z,7.07
2023-05-10T15:54:25.087Z,7.63
2023-05-10T15:56:54.922Z,7.20
2023-05-10T15:59:25.622Z,6.83
2023-05-10T16:01:56.148Z,7.17
2023-05-10T16:04:27.185Z,6.70
2023-05-10T16:06:55.364Z,7.13
2023-05-10T16:09:24.852Z,7.37
2023-05-10T16:11:53.024Z,6.90
2023-05-10T16:14:22.077Z,6.93
2023-05-10T16:16:50.256Z,6.33
2023-05-10T16:19:21.126Z,6.40
2023-05-10T16:21:49.377Z,6.07
2023-05-10T16:24:19.815Z,7.13
2023-05-10T16:26:49.327Z,5.37
2023-05-10T16:29:17.519Z,5.37
2023-05-10T16:31:46.347Z,6.03
2023-05-10T16:34:14.490Z,5.93
2023-05-10T16:36:42.874Z,5.60
2023-05-10T16:39:11.267Z,5.47
2023-05-10T16:41:41.561Z,5.63
2023-05-10T16:44:15.311Z,6.37
2023-05-10T16:46:46.125Z,5.40
2023-05-10T16:49:21.442Z,4.97
2023-05-10T16:51:55.694Z,5.33
2023-05-10T16:54:32.280Z,5.77
2023-05-10T16:57:04.917Z,5.27
2023-05-10T16:59:36.960Z,4.90
2023-05-10T17:02:06.750Z,5.93
2023-05-10T17:04:41.556Z,4.60
2023-05-10T17:07:12.268Z,5.13
2023-05-10T17:09:46.117Z,4.40
2023-05-10T17:12:16.470Z,4.93
2023-05-10T17:14:47.825Z,4.37
2023-05-10T17:17:17.764Z,4.70
2023-05-10T17:19:49.189Z,4.40
2023-05-10T17:22:19.153Z,4.50
2023-05-10T17:24:54.322Z,4.27
2023-05-10T17:27:33.352Z,4.27
2023-05-10T17:30:18.723Z,4.50
2023-05-10T17:32:59.535Z,4.10
2023-05-10T17:35:51.159Z,4.20
2023-05-10T17:38:34.871Z,3.87
2023-05-10T17:41:22.550Z,3.30
2023-05-10T17:43:57.522Z,3.50
2023-05-10T17:46:46.764Z,4.20
2023-05-10T17:49:17.585Z,4.13
2023-05-10T17:51:48.395Z,3.77
2023-05-10T17:54:16.672Z,3.93
2023-05-10T17:56:44.922Z,3.60
2023-05-10T17:59:15.337Z,3.20
2023-05-10T18:01:44.918Z,3.70
2023-05-10T18:04:13.120Z,3.73
2023-05-10T18:06:41.715Z,3.57
2023-05-10T18:09:09.915Z,4.37
2023-05-10T18:11:39.365Z,4.03
2023-05-10T18:14:07.486Z,3.97
2023-05-10T18:16:38.106Z,3.73
2023-05-10T18:19:07.748Z,3.83
2023-05-10T18:21:35.954Z,4.20
2023-05-10T18:24:06.641Z,3.63
2023-05-10T18:26:34.867Z,3.30
2023-05-10T18:29:03.099Z,3.43
2023-05-10T18:31:31.291Z,3.73
2023-05-10T18:34:01.942Z,3.40
2023-05-10T18:36:32.325Z,3.50
2023-05-10T18:39:06.724Z,4.00
2023-05-10T18:41:34.883Z,3.70
2023-05-10T18:44:03.095Z,3.50
2023-05-10T18:46:31.401Z,3.40
2023-05-10T18:48:59.616Z,3.90
2023-05-10T18:51:34.821Z,3.20
2023-05-10T18:54:03.046Z,3.87
2023-05-10T18:56:31.452Z,3.80
2023-05-10T18:58:59.574Z,3.67
2023-05-10T19:01:27.774Z,3.60
2023-05-10T19:03:56.078Z,3.40
2023-05-10T19:06:26.524Z,3.07
2023-05-10T19:08:56.067Z,3.60
2023-05-10T19:11:24.310Z,3.37
2023-05-10T19:13:52.517Z,3.27
2023-05-10T19:16:23.319Z,3.63
2023-05-10T19:18:56.585Z,3.57
2023-05-10T19:21:24.842Z,4.10
2023-05-10T19:23:57.754Z,3.43
2023-05-10T19:26:25.949Z,4.10
2023-05-10T19:28:57.605Z,4.27
2023-05-10T19:31:25.818Z,3.87
2023-05-10T19:33:54.055Z,4.07
2023-05-10T19:36:24.552Z,4.63
2023-05-10T19:38:57.116Z,4.70
2023-05-10T19:41:25.713Z,4.70
2023-05-10T19:43:56.369Z,4.00
2023-05-10T19:46:24.604Z,4.37
2023-05-10T19:48:53.128Z,4.43
2023-05-10T19:51:21.293Z,3.63
2023-05-10T19:53:49.499Z,4.03
2023-05-10T19:56:19.521Z,4.40
2023-05-10T19:58:48.228Z,4.20
2023-05-10T20:01:18.957Z,3.93
2023-05-10T20:03:47.260Z,4.30
2023-05-10T20:06:15.462Z,4.10
2023-05-10T20:08:43.612Z,4.20
2023-05-10T20:11:12.113Z,5.00
2023-05-10T20:13:41.572Z,5.23
2023-05-10T20:16:09.859Z,4.13
2023-05-10T20:18:38.577Z,3.80
2023-05-10T20:21:06.941Z,4.73
2023-05-10T20:23:35.101Z,5.23
2023-05-10T20:26:03.643Z,4.77
2023-05-10T20:28:31.846Z,5.00
2023-05-10T20:31:02.036Z,4.30
2023-05-10T20:33:30.472Z,4.80
2023-05-10T20:36:00.643Z,4.97
2023-05-10T20:38:28.817Z,5.20
2023-05-10T20:40:57.335Z,5.87
2023-05-10T20:43:25.636Z,5.43
2023-05-10T20:45:54.170Z,5.13
2023-05-10T20:48:25.948Z,5.10
2023-05-10T20:50:54.082Z,5.03
2023-05-10T20:53:22.299Z,5.37
2023-05-10T20:55:52.858Z,5.97
2023-05-10T20:58:21.018Z,5.50
2023-05-10T21:00:49.269Z,5.53
2023-05-10T21:03:17.386Z,6.53
2023-05-10T21:05:46.934Z,6.63
2023-05-10T21:08:17.611Z,5.57
2023-05-10T21:10:48.220Z,5.60
2023-05-10T21:13:16.658Z,5.27
2023-05-10T21:15:47.432Z,5.03
2023-05-10T21:18:15.626Z,5.63
2023-05-10T21:20:44.271Z,4.40
2023-05-10T21:23:13.779Z,4.40
2023-05-10T21:25:41.894Z,5.20
2023-05-10T21:28:10.121Z,5.47
2023-05-10T21:30:38.531Z,4.47
2023-05-10T21:33:07.103Z,5.57
2023-05-10T21:35:35.287Z,5.57
2023-05-10T21:38:06.212Z,5.10
2023-05-10T21:40:40.172Z,4.63
2023-05-10T21:43:08.600Z,5.53
2023-05-10T21:45:36.731Z,4.50
2023-05-10T21:48:05.938Z,5.40
2023-05-10T21:50:37.344Z,6.43
2023-05-10T21:53:05.565Z,6.57
2023-05-10T21:55:34.244Z,5.53
2023-05-10T21:58:06.704Z,6.43
2023-05-10T22:00:35.587Z,5.97
2023-05-10T22:03:03.859Z,6.00
2023-05-10T22:05:34.405Z,6.53
2023-05-10T22:08:02.599Z,6.13
2023-05-10T22:10:31.000Z,5.53
2023-05-10T22:12:59.710Z,5.60
2023-05-10T22:15:29.224Z,5.47
2023-05-10T22:17:57.476Z,5.50
2023-05-10T22:20:25.823Z,5.47
2023-05-10T22:22:56.052Z,5.50
2023-05-10T22:25:26.363Z,5.10
2023-05-10T22:27:54.554Z,6.40
2023-05-10T22:30:22.930Z,5.90
2023-05-10T22:32:54.717Z,5.53
2023-05-10T22:35:23.438Z,5.67
2023-05-10T22:37:51.624Z,6.13
2023-05-10T22:40:19.944Z,6.60
2023-05-10T22:42:48.249Z,5.40
2023-05-10T22:45:16.750Z,6.07
2023-05-10T22:47:48.290Z,6.03
2023-05-10T22:50:20.595Z,6.20
2023-05-10T22:52:51.210Z,5.57
2023-05-10T22:55:19.317Z,5.30
2023-05-10T22:57:47.449Z,5.00
2023-05-10T23:00:16.846Z,5.63
2023-05-10T23:02:47.325Z,6.03
2023-05-10T23:05:18.030Z,5.93
2023-05-10T23:07:53.214Z,5.93
2023-05-10T23:10:21.584Z,5.77
2023-05-10T23:12:49.765Z,6.50
2023-05-10T23:15:20.050Z,6.33
2023-05-10T23:17:48.239Z,7.00
2023-05-10T23:20:18.935Z,6.90
2023-05-10T23:22:56.287Z,5.97
2023-05-10T23:25:24.378Z,6.60
2023-05-10T23:27:52.456Z,5.53
2023-05-10T23:30:20.735Z,5.80
2023-05-10T23:32:48.876Z,7.27
2023-05-10T23:35:19.509Z,7.90
2023-05-10T23:37:49.864Z,6.30
2023-05-10T23:40:19.814Z,6.40
2023-05-10T23:42:48.165Z,7.30
2023-05-10T23:45:16.460Z,7.47
2023-05-10T23:47:46.721Z,8.43
2023-05-10T23:50:14.949Z,7.13
2023-05-10T23:52:43.210Z,8.23
2023-05-10T23:55:13.494Z,7.03
2023-05-10T23:57:43.713Z,7.00
